createdAt,value
2023-07-24T00:00:47.161Z,18.5
2023-07-24T00:02:51.468Z,18.5
2023-07-24T00:04:52.465Z,18.5
2023-07-24T00:06:53.564Z,18.5
2023-07-24T00:09:21.504Z,18.5
2023-07-24T00:11:22.564Z,18.5
2023-07-24T00:13:23.613Z,18.5
2023-07-24T00:21:31.125Z,18.5
2023-07-24T00:23:32.193Z,18.5
2023-07-24T00:27:34.330Z,18.4
2023-07-24T00:29:38.574Z,18.4
2023-07-24T00:43:49.217Z,18.3
2023-07-24T00:45:50.305Z,18.3
2023-07-24T00:47:51.396Z,18.3
2023-07-24T00:49:52.421Z,18.3
2023-07-24T00:53:54.568Z,18.3
2023-07-24T00:55:55.668Z,18.3
2023-07-24T01:00:00.972Z,18.3
2023-07-24T01:03:04.247Z,18.3
2023-07-24T01:09:07.387Z,18.3
2023-07-24T01:17:14.834Z,18.3
2023-07-24T01:19:15.905Z,18.3
2023-07-24T01:23:18.155Z,18.2
2023-07-24T01:27:23.366Z,18.1
2023-07-24T01:29:24.462Z,18.1
2023-07-24T01:33:26.594Z,18.1
2023-07-24T01:35:27.691Z,18.1
2023-07-24T01:49:38.357Z,18.1
2023-07-24T01:51:39.425Z,18.1
2023-07-24T01:53:43.721Z,18.1
2023-07-24T01:55:44.800Z,18.1
2023-07-24T01:57:45.820Z,18.1
2023-07-24T01:58:47.977Z,18.1
2023-07-24T02:02:50.165Z,18
2023-07-24T02:08:56.558Z,18
2023-07-24T02:12:58.683Z,17.9
2023-07-24T02:19:01.895Z,17.8
2023-07-24T02:21:06.160Z,17.8
2023-07-24T02:23:07.236Z,17.8
2023-07-24T02:25:08.324Z,17.8
2023-07-24T02:27:09.403Z,17.8
2023-07-24T02:29:10.457Z,17.8
2023-07-24T02:31:11.584Z,17.8
2023-07-24T02:33:12.637Z,17.8
2023-07-24T02:35:16.922Z,17.8
2023-07-24T02:37:17.948Z,17.8
2023-07-24T02:39:19.074Z,17.8
2023-07-24T02:41:20.154Z,17.8
2023-07-24T02:43:21.214Z,17.8
2023-07-24T02:45:22.299Z,17.8
2023-07-24T02:47:23.451Z,17.8
2023-07-24T02:49:27.640Z,17.8
2023-07-24T02:51:28.700Z,17.8
2023-07-24T02:53:29.809Z,17.8
2023-07-24T02:54:31.936Z,17.8
2023-07-24T03:06:41.575Z,17.8
2023-07-24T03:28:58.149Z,17.9
2023-07-24T03:41:07.817Z,17.9
2023-07-24T03:43:08.849Z,17.8
2023-07-24T03:45:13.126Z,17.8
2023-07-24T03:47:14.228Z,17.8
2023-07-24T03:49:15.287Z,17.8
2023-07-24T03:51:43.280Z,17.8
2023-07-24T03:53:44.372Z,17.8
2023-07-24T03:55:45.515Z,17.8
2023-07-24T03:57:49.675Z,17.8
2023-07-24T03:59:50.788Z,17.8
2023-07-24T04:01:51.837Z,17.7
2023-07-24T04:03:52.960Z,17.7
2023-07-24T04:05:54.025Z,17.7
2023-07-24T04:07:55.114Z,17.7
2023-07-24T04:09:56.166Z,17.7
2023-07-24T04:12:00.474Z,17.7
2023-07-24T04:14:01.565Z,17.7
2023-07-24T04:16:02.614Z,17.7
2023-07-24T04:18:03.772Z,17.7
2023-07-24T04:22:05.856Z,17.6
2023-07-24T04:26:11.230Z,17.6
2023-07-24T04:28:12.302Z,17.5
2023-07-24T04:40:22.007Z,17.5
2023-07-24T04:45:26.336Z,17.5
2023-07-24T04:47:27.433Z,17.5
2023-07-24T04:49:28.498Z,17.5
2023-07-24T04:51:29.576Z,17.5
2023-07-24T04:53:33.856Z,17.4
2023-07-24T04:55:34.919Z,17.4
2023-07-24T04:57:36.004Z,17.4
2023-07-24T04:59:37.079Z,17.4
2023-07-24T05:01:38.234Z,17.5
2023-07-24T05:03:39.277Z,17.5
2023-07-24T05:09:45.722Z,17.5
2023-07-24T05:15:48.938Z,17.5
2023-07-24T05:17:50.193Z,17.5
2023-07-24T05:19:51.107Z,17.5
2023-07-24T05:34:01.931Z,17.4
2023-07-24T05:36:06.192Z,17.4
2023-07-24T05:38:07.293Z,17.4
2023-07-24T05:40:08.375Z,17.4
2023-07-24T05:41:10.480Z,17.4
2023-07-24T05:45:12.684Z,17.5
2023-07-24T05:47:13.758Z,17.6
2023-07-24T05:51:19.117Z,17.7
2023-07-24T05:53:20.206Z,17.7
2023-07-24T05:55:21.263Z,17.7
2023-07-24T05:57:22.326Z,17.7
2023-07-24T06:09:32.021Z,17.8
2023-07-24T06:11:33.066Z,17.8
2023-07-24T06:13:34.166Z,17.8
2023-07-24T06:25:43.819Z,17.9
2023-07-24T06:36:55.241Z,18.3
2023-07-24T06:38:55.588Z,18.4
2023-07-24T06:40:56.626Z,18.3
2023-07-24T06:42:57.693Z,18.4
2023-07-24T06:45:01.977Z,18.5
2023-07-24T06:47:03.016Z,18.5
2023-07-24T06:49:04.137Z,18.6
2023-07-24T06:51:05.254Z,18.6
2023-07-24T06:53:06.258Z,18.6
2023-07-24T06:55:07.323Z,18.7
2023-07-24T06:57:08.418Z,18.8
2023-07-24T06:59:12.635Z,19
2023-07-24T07:01:13.763Z,19
2023-07-24T07:03:14.800Z,19
2023-07-24T07:05:15.845Z,19.3
2023-07-24T07:07:16.866Z,19.3
2023-07-24T07:09:17.918Z,19.4
2023-07-24T07:11:18.986Z,19.5
2023-07-24T07:15:24.298Z,19.5
2023-07-24T07:19:26.394Z,19.5
2023-07-24T07:21:27.483Z,19.6
2023-07-24T07:23:28.499Z,19.6
2023-07-24T07:29:34.874Z,19.6
2023-07-24T07:36:04.850Z,19.7
2023-07-24T07:48:14.359Z,20.7
2023-07-24T07:50:15.351Z,20.9
2023-07-24T07:52:16.406Z,21
2023-07-24T07:54:20.596Z,20.4
2023-07-24T07:56:21.616Z,20.3
2023-07-24T08:02:24.683Z,21
2023-07-24T08:04:25.639Z,21.5
2023-07-24T08:06:26.705Z,21.7
2023-07-24T08:08:30.812Z,21.2
2023-07-24T08:10:31.805Z,21.1
2023-07-24T08:12:32.804Z,20.8
2023-07-24T08:16:35.246Z,21.2
2023-07-24T08:18:35.791Z,21.2
2023-07-24T08:20:36.761Z,21.1
2023-07-24T08:26:42.937Z,20.6
2023-07-24T08:27:57.615Z,20.7
2023-07-24T08:39:54.264Z,20.4
2023-07-24T08:41:55.262Z,20.5
2023-07-24T08:43:56.275Z,20.6
2023-07-24T08:45:57.293Z,20.5
2023-07-24T08:50:02.500Z,20.7
2023-07-24T08:54:04.561Z,21.3
2023-07-24T08:56:05.567Z,21.4
2023-07-24T08:58:06.583Z,21.1
2023-07-24T09:02:08.574Z,21.4
2023-07-24T09:04:12.843Z,21.3
2023-07-24T09:06:13.824Z,21
2023-07-24T09:12:16.819Z,21.7
2023-07-24T09:23:28.630Z,21.2
2023-07-24T09:25:29.645Z,21.1
2023-07-24T09:27:32.227Z,21
2023-07-24T09:29:31.610Z,20.8
2023-07-24T09:31:35.847Z,20.9
2023-07-24T09:33:36.784Z,20.9
2023-07-24T09:37:38.826Z,21.1
2023-07-24T09:41:41.424Z,21.9
2023-07-24T09:43:41.984Z,22.5
2023-07-24T09:45:46.495Z,22.8
2023-07-24T09:49:48.090Z,22.9
2023-07-24T09:51:48.978Z,22.5
2023-07-24T09:55:50.957Z,22.4
2023-07-24T10:01:57.072Z,22.3
2023-07-24T10:03:58.000Z,22.2
2023-07-24T10:05:58.976Z,22.1
2023-07-24T10:07:59.989Z,22.1
2023-07-24T10:10:00.959Z,22.3
2023-07-24T10:12:01.930Z,22.2
2023-07-24T10:14:06.120Z,21.8
2023-07-24T10:16:07.101Z,21.6
2023-07-24T10:18:08.081Z,21.6
2023-07-24T10:19:10.174Z,21.7
2023-07-24T10:43:28.426Z,21.6
2023-07-24T10:53:33.438Z,22.2
2023-07-24T10:55:37.669Z,22
2023-07-24T10:59:39.625Z,22
2023-07-24T11:01:40.689Z,22.2
2023-07-24T11:03:41.602Z,22.1
2023-07-24T11:09:47.794Z,21.6
2023-07-24T11:11:48.788Z,21.6
2023-07-24T11:13:49.800Z,21.5
2023-07-24T11:16:17.654Z,21.6
2023-07-24T11:18:18.619Z,21.6
2023-07-24T11:22:23.788Z,21.5
2023-07-24T11:24:24.901Z,21.6
2023-07-24T11:26:25.868Z,21.6
2023-07-24T11:28:26.791Z,21.6
2023-07-24T11:30:27.824Z,21.8
2023-07-24T11:32:28.849Z,22.1
2023-07-24T11:34:29.790Z,22.1
2023-07-24T11:36:34.046Z,21.6
2023-07-24T11:38:35.020Z,21.6
2023-07-24T11:40:36.013Z,21.5
2023-07-24T11:44:38.036Z,21.6
2023-07-24T11:46:39.060Z,21.5
2023-07-24T11:52:45.272Z,21.9
2023-07-24T11:56:47.269Z,22.1
2023-07-24T11:58:48.246Z,22.1
2023-07-24T12:00:49.260Z,21.9
2023-07-24T12:02:50.340Z,21.8
2023-07-24T12:04:54.447Z,21.9
2023-07-24T12:06:55.462Z,21.9
2023-07-24T12:08:56.481Z,22
2023-07-24T12:09:58.534Z,22
2023-07-24T12:22:07.746Z,22.1
2023-07-24T12:24:08.760Z,22.2
2023-07-24T12:26:09.728Z,22.2
2023-07-24T12:28:10.768Z,22.1
2023-07-24T12:30:11.742Z,22.3
2023-07-24T12:32:15.915Z,22.3
2023-07-24T12:36:17.924Z,22.6
2023-07-24T12:40:19.952Z,22.3
2023-07-24T12:52:29.038Z,23.1
2023-07-24T12:54:37.245Z,23.4
2023-07-24T12:56:31.038Z,23.7
2023-07-24T12:58:31.975Z,23.5
2023-07-24T13:00:36.228Z,22.8
2023-07-24T13:02:37.176Z,22.6
2023-07-24T13:04:38.107Z,22.5
2023-07-24T13:17:49.356Z,23.8
2023-07-24T13:19:50.271Z,23.8
2023-07-24T13:21:51.250Z,23.2
2023-07-24T13:23:52.179Z,23.1
2023-07-24T13:25:53.166Z,23.1
2023-07-24T13:27:57.368Z,23.2
2023-07-24T13:29:58.306Z,23.3
2023-07-24T13:31:59.282Z,23.5
2023-07-24T13:34:00.238Z,23.1
2023-07-24T13:36:01.172Z,23
2023-07-24T13:38:02.142Z,23
2023-07-24T13:40:03.093Z,22.8
2023-07-24T13:42:07.255Z,23.3
2023-07-24T13:44:08.233Z,23.4
2023-07-24T13:46:09.235Z,23.6
2023-07-24T13:48:10.144Z,23.6
2023-07-24T13:50:11.119Z,23.5
2023-07-24T13:52:12.060Z,23.2
2023-07-24T13:56:17.207Z,20.6
2023-07-24T14:01:21.356Z,19.9
2023-07-24T14:03:22.414Z,19.8
2023-07-24T14:05:23.309Z,19.8
2023-07-24T14:09:28.529Z,19.8
2023-07-24T14:11:29.913Z,19.8
2023-07-24T14:13:30.566Z,19.8
2023-07-24T14:15:31.608Z,19.7
2023-07-24T14:17:32.654Z,19.6
2023-07-24T14:19:33.661Z,19.3
2023-07-24T14:21:34.676Z,19.2
2023-07-24T14:23:38.908Z,19.2
2023-07-24T14:25:39.963Z,19.2
2023-07-24T14:27:41.004Z,19.3
2023-07-24T14:29:42.071Z,19.3
2023-07-24T14:31:43.127Z,19.3
2023-07-24T14:33:44.147Z,19.4
2023-07-24T14:35:45.184Z,19.6
2023-07-24T14:37:49.435Z,19.6
2023-07-24T14:39:50.499Z,19.6
2023-07-24T14:41:51.510Z,19.7
2023-07-24T14:43:52.596Z,19.9
2023-07-24T14:54:00.981Z,20.3
2023-07-24T14:56:02.006Z,20.3
2023-07-24T14:58:29.944Z,20
2023-07-24T15:00:30.925Z,19.9
2023-07-24T15:02:31.991Z,19.8
2023-07-24T15:04:37.738Z,19.8
2023-07-24T15:06:38.711Z,19.8
2023-07-24T15:08:39.769Z,19.8
2023-07-24T15:10:40.788Z,19.7
2023-07-24T15:14:42.941Z,19.4
2023-07-24T15:16:43.889Z,19.5
2023-07-24T15:18:48.141Z,19.6
2023-07-24T15:26:52.285Z,19.8
2023-07-24T15:41:02.739Z,18.7
2023-07-24T15:49:10.127Z,19.7
2023-07-24T15:51:11.183Z,19.5
2023-07-24T15:52:13.301Z,19.3
2023-07-24T15:56:15.398Z,19.4
2023-07-24T15:58:16.427Z,19.3
2023-07-24T16:00:20.683Z,19.4
2023-07-24T16:02:21.781Z,19.6
2023-07-24T16:04:22.934Z,19.4
2023-07-24T16:06:23.833Z,19.1
2023-07-24T16:08:24.899Z,19.1
2023-07-24T16:10:25.945Z,19.2
2023-07-24T16:12:27.002Z,19.3
2023-07-24T16:14:31.283Z,19.4
2023-07-24T16:16:32.313Z,19.4
2023-07-24T16:18:33.428Z,19.3
2023-07-24T16:20:35.536Z,19.2
2023-07-24T16:22:35.464Z,19.4
2023-07-24T16:26:37.580Z,19.2
2023-07-24T16:28:41.815Z,18.8
2023-07-24T16:30:42.915Z,18.6
2023-07-24T16:32:49.166Z,18.4
2023-07-24T16:34:44.976Z,18.2
2023-07-24T16:36:46.456Z,18.2
2023-07-24T16:40:48.172Z,18.3
2023-07-24T16:42:56.478Z,18.3
2023-07-24T16:47:11.761Z,18.1
2023-07-24T16:47:56.739Z,18
2023-07-24T17:00:06.299Z,17.5
2023-07-24T17:02:07.395Z,17.5
2023-07-24T17:06:09.515Z,18
2023-07-24T17:10:14.890Z,18.1
2023-07-24T17:18:19.176Z,17.7
2023-07-24T17:22:21.366Z,17.5
2023-07-24T17:24:25.653Z,17.2
2023-07-24T17:26:26.683Z,17.2
2023-07-24T17:28:27.777Z,17.2
2023-07-24T17:30:28.912Z,17.2
2023-07-24T17:34:31.009Z,17.1
2023-07-24T17:43:40.657Z,17.1
2023-07-24T17:45:41.741Z,17.2
2023-07-24T17:47:42.932Z,17.1
2023-07-24T17:49:53.246Z,17.1
2023-07-24T17:51:48.212Z,16.9
2023-07-24T17:53:49.306Z,16.9
2023-07-24T17:55:51.618Z,16.9
2023-07-24T17:57:51.534Z,16.9
2023-07-24T17:59:52.568Z,16.9
2023-07-24T18:01:53.670Z,16.9
2023-07-24T18:03:54.777Z,17
2023-07-24T18:05:59.007Z,16.9
2023-07-24T18:14:03.344Z,16.9
2023-07-24T18:18:05.552Z,17
2023-07-24T18:20:09.786Z,17
2023-07-24T18:22:10.883Z,16.9
2023-07-24T18:26:13.071Z,16.8
2023-07-24T18:28:14.141Z,16.9
2023-07-24T18:30:15.220Z,16.8
2023-07-24T18:36:21.698Z,16.6
2023-07-24T18:38:22.807Z,16.6
2023-07-24T18:53:00.564Z,16.6
2023-07-24T19:05:10.440Z,15.9
2023-07-24T19:07:11.438Z,15.9
2023-07-24T19:09:12.524Z,15.9
2023-07-24T19:11:13.607Z,15.9
2023-07-24T19:13:14.724Z,15.8
2023-07-24T19:15:18.980Z,15.8
2023-07-24T19:17:20.103Z,15.8
2023-07-24T19:19:21.187Z,15.8
2023-07-24T19:21:22.295Z,15.9
2023-07-24T19:23:23.413Z,15.8
2023-07-24T19:25:24.505Z,15.8
2023-07-24T19:27:25.605Z,15.7
2023-07-24T19:29:29.900Z,15.7
2023-07-24T19:31:31.198Z,15.7
2023-07-24T19:33:32.099Z,15.6
2023-07-24T19:34:34.268Z,15.6
2023-07-24T19:54:48.523Z,15.6
2023-07-24T19:56:52.821Z,15.6
2023-07-24T19:58:53.918Z,15.6
2023-07-24T20:00:55.037Z,15.6
2023-07-24T20:02:56.219Z,15.7
2023-07-24T20:04:57.248Z,15.7
2023-07-24T20:06:58.346Z,15.7
2023-07-24T20:19:08.179Z,15.7
2023-07-24T20:21:09.258Z,15.9
2023-07-24T20:23:10.360Z,16
2023-07-24T20:29:16.866Z,15.8
2023-07-24T20:30:18.995Z,15.9
2023-07-24T20:36:22.307Z,15.8
2023-07-24T20:38:26.587Z,15.8
2023-07-24T20:40:27.678Z,15.8
2023-07-24T20:42:28.795Z,15.7
2023-07-24T20:46:31.007Z,15.6
2023-07-24T20:48:32.097Z,15.6
2023-07-24T20:50:33.199Z,15.7
2023-07-24T20:52:37.485Z,15.7
2023-07-24T20:54:40.125Z,15.7
2023-07-24T20:56:41.180Z,15.7
2023-07-24T20:58:42.334Z,15.6
2023-07-24T21:00:43.382Z,15.7
2023-07-24T21:04:45.651Z,15.8
2023-07-24T21:08:50.967Z,15.7
2023-07-24T21:10:52.094Z,15.7
2023-07-24T21:14:54.256Z,15.7
2023-07-24T21:16:55.377Z,15.7
2023-07-24T21:18:56.460Z,15.7
2023-07-24T21:21:01.899Z,15.6
2023-07-24T21:23:01.862Z,15.6
2023-07-24T21:25:02.956Z,15.6
2023-07-24T21:26:05.111Z,15.6
2023-07-24T21:30:07.289Z,15.5
2023-07-24T21:32:08.380Z,15.4
2023-07-24T21:34:12.700Z,15.4
2023-07-24T21:36:13.781Z,15.4
2023-07-24T21:40:15.990Z,15.3
2023-07-24T21:42:17.120Z,15.2
2023-07-24T21:44:18.213Z,15.2
2023-07-24T21:46:19.327Z,15.1
2023-07-24T21:50:24.702Z,15
2023-07-24T21:52:25.809Z,15
2023-07-24T21:54:26.910Z,15
2023-07-24T21:56:28.019Z,14.9
2023-07-24T21:58:29.135Z,14.8
2023-07-24T22:00:30.285Z,14.9
2023-07-24T22:04:35.667Z,14.8
2023-07-24T22:06:36.857Z,14.7
2023-07-24T22:12:40.142Z,14.7
2023-07-24T22:16:45.559Z,14.5
2023-07-24T22:18:46.667Z,14.5
2023-07-24T22:20:47.774Z,14.5
2023-07-24T22:25:17.100Z,14.4
2023-07-24T22:27:18.212Z,14.4
2023-07-24T22:29:22.510Z,14.3
2023-07-24T22:31:23.688Z,14.3
2023-07-24T22:33:24.760Z,14.3
2023-07-24T22:35:25.864Z,14.2
2023-07-24T22:37:27.098Z,14.2
2023-07-24T22:41:29.867Z,14.1
2023-07-24T22:45:35.184Z,14.1
2023-07-24T22:47:36.496Z,14.1
2023-07-24T22:49:37.632Z,14.1
2023-07-24T22:53:40.086Z,14.1
2023-07-24T23:09:53.227Z,14.1
2023-07-24T23:11:57.495Z,14.1
2023-07-24T23:13:58.737Z,14
2023-07-24T23:15:59.962Z,14
2023-07-24T23:17:02.198Z,14
2023-07-24T23:31:13.994Z,13.7
2023-07-24T23:33:15.217Z,13.7
2023-07-24T23:37:17.648Z,13.6
2023-07-24T23:41:23.381Z,13.6
2023-07-24T23:45:25.831Z,13.5
2023-07-24T23:47:27.091Z,13.5
2023-07-24T23:49:28.328Z,13.4
2023-07-24T23:51:29.921Z,13.3
2023-07-24T23:55:35.303Z,13.2
2023-07-24T23:57:36.509Z,13.2
